createdAt,value
2023-02-12T00:00:47.559Z,-1.71
2023-02-12T00:03:14.343Z,-1.98
2023-02-12T00:05:41.775Z,-2.53
2023-02-12T00:08:09.323Z,-1.61
2023-02-12T00:10:40.611Z,-1.60
2023-02-12T00:13:07.358Z,-1.62
2023-02-12T00:15:34.835Z,-2.21
2023-02-12T00:18:01.578Z,-1.55
2023-02-12T00:20:28.319Z,-1.55
2023-02-12T00:22:55.040Z,-1.60
2023-02-12T00:25:21.962Z,-1.63
2023-02-12T00:27:48.712Z,-1.60
2023-02-12T00:30:15.655Z,-1.61
2023-02-12T00:32:42.524Z,-1.65
2023-02-12T00:35:09.329Z,-2.07
2023-02-12T00:37:36.037Z,-2.11
2023-02-12T00:40:03.014Z,-2.05
2023-02-12T00:42:29.787Z,-2.09
2023-02-12T00:44:56.500Z,-1.56
2023-02-12T00:47:23.642Z,-1.46
2023-02-12T00:49:50.638Z,-1.37
2023-02-12T00:52:17.401Z,-1.28
2023-02-12T00:54:44.111Z,-1.30
2023-02-12T00:57:10.854Z,-1.40
2023-02-12T00:59:40.088Z,-1.46
2023-02-12T01:02:06.945Z,-2.01
2023-02-12T01:04:33.762Z,-2.47
2023-02-12T01:07:00.532Z,-1.45
2023-02-12T01:09:27.418Z,-1.80
2023-02-12T01:11:54.202Z,-1.45
2023-02-12T01:14:21.057Z,-2.11
2023-02-12T01:16:47.843Z,-1.81
2023-02-12T01:19:14.880Z,-1.63
2023-02-12T01:21:42.521Z,-1.52
2023-02-12T01:24:09.966Z,-1.62
2023-02-12T01:26:39.618Z,-1.46
2023-02-12T01:29:07.559Z,-1.47
2023-02-12T01:31:38.872Z,-1.47
2023-02-12T01:34:07.352Z,-1.79
2023-02-12T01:36:34.528Z,-2.04
2023-02-12T01:39:03.032Z,-1.91
2023-02-12T01:41:33.430Z,-1.74
2023-02-12T01:44:21.538Z,-1.71
2023-02-12T01:46:54.796Z,-1.69
2023-02-12T01:49:26.680Z,-1.92
2023-02-12T01:52:01.286Z,-1.70
2023-02-12T01:54:29.326Z,-1.84
2023-02-12T01:56:56.240Z,-1.90
2023-02-12T01:59:24.243Z,-1.70
2023-02-12T02:01:51.138Z,-1.85
2023-02-12T02:04:23.525Z,-2.07
2023-02-12T02:07:03.157Z,-2.33
2023-02-12T02:09:32.926Z,-1.97
2023-02-12T02:12:18.233Z,-2.11
2023-02-12T02:14:47.122Z,-2.96
2023-02-12T02:17:17.535Z,-2.21
2023-02-12T02:19:50.407Z,-2.24
2023-02-12T02:22:26.074Z,-2.22
2023-02-12T02:25:23.354Z,-2.58
2023-02-12T02:28:20.933Z,-2.17
2023-02-12T02:31:06.463Z,-2.21
2023-02-12T02:33:39.852Z,-2.29
2023-02-12T02:36:36.853Z,-2.33
2023-02-12T02:39:14.637Z,-2.34
2023-02-12T02:41:50.748Z,-2.41
2023-02-12T02:44:27.037Z,-2.38
2023-02-12T02:46:54.690Z,-2.58
2023-02-12T02:49:31.725Z,-2.86
2023-02-12T02:52:08.061Z,-2.44
2023-02-12T02:54:41.976Z,-2.42
2023-02-12T02:57:15.730Z,-2.40
2023-02-12T02:59:52.572Z,-2.85
2023-02-12T03:02:31.826Z,-4.82
2023-02-12T03:05:04.362Z,-2.97
2023-02-12T03:07:39.144Z,-2.57
2023-02-12T03:10:14.922Z,-3.43
2023-02-12T03:13:07.123Z,-3.85
2023-02-12T03:15:57.169Z,-2.36
2023-02-12T03:18:35.170Z,-2.84
2023-02-12T03:21:07.093Z,-2.66
2023-02-12T03:23:47.495Z,-2.54
2023-02-12T03:26:32.753Z,-2.67
2023-02-12T03:28:59.769Z,-2.94
2023-02-12T03:31:38.974Z,-2.75
2023-02-12T03:34:19.241Z,-2.29
2023-02-12T03:36:45.983Z,-2.35
2023-02-12T03:39:30.322Z,-2.40
2023-02-12T03:42:17.183Z,-2.39
2023-02-12T03:44:49.901Z,-2.37
2023-02-12T03:47:35.146Z,-2.32
2023-02-12T03:50:14.880Z,-2.26
2023-02-12T03:52:43.553Z,-3.04
2023-02-12T03:55:11.432Z,-2.44
2023-02-12T03:57:47.344Z,-3.12
2023-02-12T04:00:19.901Z,-2.40
2023-02-12T04:02:47.780Z,-2.42
2023-02-12T04:05:21.178Z,-2.21
2023-02-12T04:07:49.114Z,-2.80
2023-02-12T04:10:16.820Z,-2.51
2023-02-12T04:13:00.379Z,-2.79
2023-02-12T04:15:32.313Z,-2.47
2023-02-12T04:18:20.670Z,-2.60
2023-02-12T04:20:50.098Z,-2.58
2023-02-12T04:23:23.107Z,-2.60
2023-02-12T04:25:53.191Z,-2.66
2023-02-12T04:28:40.365Z,-3.35
2023-02-12T04:31:26.490Z,-3.70
2023-02-12T04:34:19.570Z,-2.64
2023-02-12T04:36:55.867Z,-2.64
2023-02-12T04:39:28.222Z,-2.60
2023-02-12T04:41:58.960Z,-3.19
2023-02-12T04:44:29.689Z,-2.95
2023-02-12T04:46:57.079Z,-2.86
2023-02-12T04:49:25.302Z,-2.49
2023-02-12T04:51:52.482Z,-2.56
2023-02-12T04:54:21.293Z,-2.89
2023-02-12T04:56:48.390Z,-2.61
2023-02-12T04:59:28.708Z,-2.65
2023-02-12T05:01:55.648Z,-2.61
2023-02-12T05:04:22.578Z,-3.16
2023-02-12T05:06:49.320Z,-3.15
2023-02-12T05:09:18.775Z,-2.73
2023-02-12T05:11:45.871Z,-3.40
2023-02-12T05:14:12.894Z,-3.47
2023-02-12T05:16:40.009Z,-2.65
2023-02-12T05:19:09.464Z,-2.84
2023-02-12T05:21:37.721Z,-2.61
2023-02-12T05:24:05.165Z,-2.78
2023-02-12T05:26:31.961Z,-2.61
2023-02-12T05:28:58.874Z,-2.66
2023-02-12T05:31:25.730Z,-3.44
2023-02-12T05:33:52.738Z,-2.71
2023-02-12T05:36:24.217Z,-2.97
2023-02-12T05:38:52.135Z,-2.63
2023-02-12T05:41:24.013Z,-2.58
2023-02-12T05:43:52.054Z,-3.12
2023-02-12T05:46:20.270Z,-2.70
2023-02-12T05:48:47.454Z,-2.76
2023-02-12T05:51:19.911Z,-3.57
2023-02-12T05:53:46.786Z,-3.12
2023-02-12T05:56:19.472Z,-3.06
2023-02-12T05:58:48.592Z,-2.95
2023-02-12T06:01:19.118Z,-3.54
2023-02-12T06:03:45.921Z,-3.11
2023-02-12T06:06:13.071Z,-3.11
2023-02-12T06:08:41.132Z,-3.11
2023-02-12T06:11:11.550Z,-3.01
2023-02-12T06:13:38.382Z,-2.97
2023-02-12T06:16:05.864Z,-2.95
2023-02-12T06:18:36.109Z,-3.01
2023-02-12T06:21:04.440Z,-3.03
2023-02-12T06:23:37.613Z,-2.93
2023-02-12T06:26:04.727Z,-2.94
2023-02-12T06:28:31.583Z,-2.92
2023-02-12T06:30:59.279Z,-2.66
2023-02-12T06:33:30.591Z,-2.81
2023-02-12T06:35:57.706Z,-2.59
2023-02-12T06:38:24.659Z,-2.59
2023-02-12T06:40:51.439Z,-2.65
2023-02-12T06:43:18.495Z,-2.64
2023-02-12T06:45:45.352Z,-2.89
2023-02-12T06:48:12.118Z,-2.61
2023-02-12T06:50:38.880Z,-2.57
2023-02-12T06:53:05.743Z,-2.51
2023-02-12T06:55:32.447Z,-2.58
2023-02-12T06:57:59.245Z,-2.62
2023-02-12T07:00:26.130Z,-2.08
2023-02-12T07:02:55.094Z,-2.69
2023-02-12T07:05:23.062Z,-2.21
2023-02-12T07:07:49.990Z,-2.06
2023-02-12T07:10:17.817Z,-2.02
2023-02-12T07:12:44.730Z,-1.98
2023-02-12T07:15:11.866Z,-2.08
2023-02-12T07:17:41.343Z,-1.82
2023-02-12T07:20:08.681Z,-1.80
2023-02-12T07:22:38.462Z,-1.95
2023-02-12T07:25:05.609Z,-3.21
2023-02-12T07:27:32.667Z,-1.69
2023-02-12T07:29:59.517Z,-2.14
2023-02-12T07:32:26.382Z,-2.97
2023-02-12T07:34:53.326Z,-1.82
2023-02-12T07:37:22.705Z,-2.92
2023-02-12T07:39:50.329Z,-2.61
2023-02-12T07:42:18.183Z,-1.95
2023-02-12T07:44:57.557Z,-6.55
2023-02-12T07:47:24.555Z,-2.86
2023-02-12T07:50:01.160Z,-1.75
2023-02-12T07:52:31.129Z,-1.58
2023-02-12T07:55:04.402Z,-2.33
2023-02-12T07:57:37.599Z,-3.12
2023-02-12T08:00:05.304Z,-2.91
2023-02-12T08:02:39.192Z,-1.19
2023-02-12T08:05:07.016Z,-1.07
2023-02-12T08:07:33.878Z,-1.19
2023-02-12T08:10:02.297Z,-1.01
2023-02-12T08:12:29.126Z,-1.86
2023-02-12T08:14:55.881Z,-1.50
2023-02-12T08:17:22.734Z,-1.42
2023-02-12T08:19:49.947Z,-1.20
2023-02-12T08:22:16.961Z,-1.14
2023-02-12T08:24:57.558Z,-0.94
2023-02-12T08:27:25.718Z,-0.74
2023-02-12T08:29:52.558Z,-0.58
2023-02-12T08:32:19.453Z,-0.43
2023-02-12T08:34:46.289Z,-0.80
2023-02-12T08:37:13.161Z,-1.46
2023-02-12T08:39:40.148Z,-0.43
2023-02-12T08:42:07.283Z,-0.35
2023-02-12T08:44:34.072Z,-0.44
2023-02-12T08:47:00.950Z,-0.57
2023-02-12T08:49:29.761Z,-0.56
2023-02-12T08:51:58.674Z,-0.23
2023-02-12T08:54:28.312Z,-0.71
2023-02-12T08:56:57.015Z,-0.91
2023-02-12T08:59:24.114Z,-0.39
2023-02-12T09:01:52.736Z,0.17
2023-02-12T09:04:22.425Z,0.20
2023-02-12T09:06:50.961Z,0.18
2023-02-12T09:09:19.870Z,-0.23
2023-02-12T09:11:47.653Z,0.21
2023-02-12T09:14:16.318Z,0.45
2023-02-12T09:16:43.725Z,0.75
2023-02-12T09:19:14.786Z,0.78
2023-02-12T09:21:42.289Z,0.15
2023-02-12T09:24:10.129Z,0.88
2023-02-12T09:26:37.068Z,0.98
2023-02-12T09:29:05.192Z,0.46
2023-02-12T09:31:36.614Z,0.89
2023-02-12T09:34:06.663Z,0.49
2023-02-12T09:36:34.364Z,0.64
2023-02-12T09:39:01.778Z,1.02
2023-02-12T09:41:43.590Z,1.45
2023-02-12T09:44:30.576Z,1.47
2023-02-12T09:47:06.446Z,1.44
2023-02-12T09:49:43.399Z,0.66
2023-02-12T09:52:17.635Z,1.37
2023-02-12T09:54:45.197Z,0.71
2023-02-12T09:57:20.559Z,1.45
2023-02-12T09:59:57.447Z,1.67
2023-02-12T10:02:27.727Z,1.16
2023-02-12T10:05:01.482Z,0.59
2023-02-12T10:07:44.240Z,1.97
2023-02-12T10:10:48.614Z,1.94
2023-02-12T10:13:20.863Z,0.72
2023-02-12T10:15:47.678Z,2.46
2023-02-12T10:18:36.058Z,2.31
2023-02-12T10:21:09.058Z,2.65
2023-02-12T10:23:51.109Z,3.11
2023-02-12T10:26:40.969Z,3.30
2023-02-12T10:29:29.094Z,3.37
2023-02-12T10:32:00.523Z,2.61
2023-02-12T10:34:33.721Z,3.39
2023-02-12T10:37:11.780Z,3.71
2023-02-12T10:39:48.685Z,3.33
2023-02-12T10:42:19.930Z,3.72
2023-02-12T10:44:47.015Z,3.03
2023-02-12T10:47:19.676Z,2.78
2023-02-12T10:49:55.746Z,4.06
2023-02-12T10:52:36.893Z,3.88
2023-02-12T10:55:24.311Z,0.47
2023-02-12T10:57:51.742Z,4.21
2023-02-12T11:00:29.073Z,3.80
2023-02-12T11:03:13.621Z,5.25
2023-02-12T11:05:43.904Z,6.16
2023-02-12T11:08:28.305Z,6.48
2023-02-12T11:10:55.231Z,5.56
2023-02-12T11:13:26.052Z,6.89
2023-02-12T11:15:53.355Z,7.35
2023-02-12T11:18:25.990Z,6.87
2023-02-12T11:20:57.361Z,7.49
2023-02-12T11:23:28.723Z,7.25
2023-02-12T11:26:00.482Z,6.90
2023-02-12T11:28:29.001Z,4.96
2023-02-12T11:30:56.027Z,7.59
2023-02-12T11:33:34.814Z,5.71
2023-02-12T11:36:06.831Z,6.86
2023-02-12T11:38:40.174Z,6.87
2023-02-12T11:41:21.390Z,6.99
2023-02-12T11:43:48.770Z,7.47
2023-02-12T11:46:26.817Z,6.40
2023-02-12T11:48:57.065Z,7.01
2023-02-12T11:51:29.472Z,6.81
2023-02-12T11:54:06.812Z,6.04
2023-02-12T11:56:45.920Z,5.77
2023-02-12T11:59:24.470Z,5.53
2023-02-12T12:01:55.353Z,7.41
2023-02-12T12:04:25.817Z,6.01
2023-02-12T12:07:06.158Z,7.59
2023-02-12T12:09:37.331Z,7.88
2023-02-12T12:12:21.565Z,6.70
2023-02-12T12:15:24.308Z,7.62
2023-02-12T12:18:21.719Z,7.71
2023-02-12T12:21:01.851Z,6.94
2023-02-12T12:23:40.465Z,6.74
2023-02-12T12:26:25.436Z,7.15
2023-02-12T12:29:03.524Z,7.47
2023-02-12T12:31:38.531Z,7.19
2023-02-12T12:34:10.215Z,7.69
2023-02-12T12:36:51.580Z,7.82
2023-02-12T12:39:46.659Z,7.91
2023-02-12T12:42:28.864Z,7.58
2023-02-12T12:45:08.598Z,7.01
2023-02-12T12:48:06.256Z,6.51
2023-02-12T12:51:00.969Z,5.60
2023-02-12T12:53:49.480Z,5.14
2023-02-12T12:56:39.525Z,4.80
2023-02-12T12:59:27.821Z,5.24
2023-02-12T13:02:16.910Z,5.64
2023-02-12T13:05:20.103Z,5.98
2023-02-12T13:07:56.018Z,5.62
2023-02-12T13:10:48.643Z,5.61
2023-02-12T13:13:26.591Z,4.84
2023-02-12T13:16:15.358Z,5.02
2023-02-12T13:18:50.570Z,4.27
2023-02-12T13:21:38.149Z,4.04
2023-02-12T13:24:17.183Z,3.82
2023-02-12T13:26:49.750Z,3.58
2023-02-12T13:29:25.538Z,2.71
2023-02-12T13:31:57.785Z,2.23
2023-02-12T13:34:29.688Z,1.96
2023-02-12T13:36:58.080Z,2.33
2023-02-12T13:39:29.257Z,2.21
2023-02-12T13:42:08.351Z,1.08
2023-02-12T13:44:56.403Z,2.06
2023-02-12T13:47:27.647Z,1.90
2023-02-12T13:49:54.552Z,1.88
2023-02-12T13:52:49.544Z,1.84
2023-02-12T13:55:19.408Z,1.81
2023-02-12T13:57:46.222Z,1.89
2023-02-12T14:00:47.432Z,1.71
2023-02-12T14:03:14.658Z,0.94
2023-02-12T14:05:42.291Z,-1.23
2023-02-12T14:08:47.375Z,-0.58
2023-02-12T14:11:20.425Z,1.12
2023-02-12T14:13:54.466Z,0.17
2023-02-12T14:16:38.805Z,0.62
2023-02-12T14:19:37.851Z,1.25
2023-02-12T14:22:14.333Z,1.01
2023-02-12T14:24:49.315Z,1.09
2023-02-12T14:27:43.447Z,1.05
2023-02-12T14:30:10.529Z,1.01
2023-02-12T14:32:57.858Z,1.01
2023-02-12T14:35:38.170Z,-0.13
2023-02-12T14:38:36.919Z,0.41
2023-02-12T14:41:42.876Z,-0.09
2023-02-12T14:44:20.073Z,0.71
2023-02-12T14:46:58.032Z,0.38
2023-02-12T14:49:33.108Z,0.34
2023-02-12T14:52:17.974Z,0.58
2023-02-12T14:54:59.209Z,0.54
2023-02-12T14:57:39.636Z,-0.03
2023-02-12T15:00:18.870Z,0.44
2023-02-12T15:02:52.767Z,-0.10
2023-02-12T15:05:24.742Z,-0.04
2023-02-12T15:08:08.244Z,0.23
2023-02-12T15:10:41.963Z,0.37
2023-02-12T15:13:34.706Z,0.31
2023-02-12T15:16:13.686Z,-0.42
2023-02-12T15:18:40.581Z,-0.06
2023-02-12T15:21:23.143Z,-0.12
2023-02-12T15:24:11.658Z,-0.92
2023-02-12T15:26:51.125Z,-0.36
2023-02-12T15:29:25.683Z,-0.47
2023-02-12T15:31:55.981Z,-0.45
2023-02-12T15:34:26.606Z,-0.44
2023-02-12T15:36:58.449Z,-0.51
2023-02-12T15:39:26.584Z,-1.25
2023-02-12T15:41:55.766Z,-0.57
2023-02-12T15:44:30.278Z,-0.59
2023-02-12T15:47:11.809Z,-0.64
2023-02-12T15:49:40.544Z,-0.79
2023-02-12T15:52:16.241Z,-0.97
2023-02-12T15:54:45.195Z,-1.20
2023-02-12T15:57:19.639Z,-0.91
2023-02-12T15:59:54.539Z,-2.31
2023-02-12T16:02:28.262Z,-0.54
2023-02-12T16:04:56.920Z,-0.58
2023-02-12T16:07:25.945Z,-0.65
2023-02-12T16:09:56.568Z,-1.76
2023-02-12T16:12:29.092Z,-0.99
2023-02-12T16:15:00.462Z,-0.77
2023-02-12T16:17:33.457Z,-0.69
2023-02-12T16:20:04.398Z,-0.61
2023-02-12T16:22:37.797Z,-0.57
2023-02-12T16:25:15.458Z,-0.44
2023-02-12T16:27:55.820Z,-0.38
2023-02-12T16:30:38.900Z,-0.42
2023-02-12T16:33:26.370Z,-0.43
2023-02-12T16:36:13.261Z,-0.56
2023-02-12T16:38:46.458Z,-1.19
2023-02-12T16:41:27.774Z,-0.70
2023-02-12T16:43:54.780Z,-0.70
2023-02-12T16:46:21.627Z,-0.77
2023-02-12T16:48:51.728Z,-0.88
2023-02-12T16:51:32.334Z,-0.80
2023-02-12T16:54:01.564Z,-0.76
2023-02-12T16:56:31.534Z,-0.72
2023-02-12T16:58:59.721Z,-0.68
2023-02-12T17:01:32.093Z,-1.00
2023-02-12T17:04:01.901Z,-0.95
2023-02-12T17:06:31.176Z,-0.70
2023-02-12T17:09:01.295Z,-0.61
2023-02-12T17:11:29.001Z,-0.65
2023-02-12T17:13:56.887Z,-0.61
2023-02-12T17:16:32.251Z,-0.99
2023-02-12T17:19:00.762Z,-0.84
2023-02-12T17:21:30.955Z,-0.81
2023-02-12T17:23:58.167Z,-0.49
2023-02-12T17:26:26.742Z,-0.56
2023-02-12T17:28:53.685Z,-0.77
2023-02-12T17:31:20.904Z,-0.62
2023-02-12T17:33:47.864Z,-0.79
2023-02-12T17:36:14.685Z,-0.54
2023-02-12T17:38:41.512Z,-2.97
2023-02-12T17:41:12.283Z,-1.19
2023-02-12T17:43:39.476Z,-1.13
2023-02-12T17:46:11.381Z,-1.40
2023-02-12T17:48:38.571Z,-1.82
2023-02-12T17:51:05.941Z,-0.79
2023-02-12T17:53:32.779Z,-1.05
2023-02-12T17:55:59.835Z,-1.05
2023-02-12T17:58:26.614Z,-1.45
2023-02-12T18:00:53.521Z,-2.04
2023-02-12T18:03:20.344Z,-1.00
2023-02-12T18:05:48.267Z,-0.80
2023-02-12T18:08:17.100Z,-0.90
2023-02-12T18:10:45.312Z,-0.95
2023-02-12T18:13:13.850Z,-1.16
2023-02-12T18:15:41.522Z,-1.64
2023-02-12T18:18:10.069Z,-0.78
2023-02-12T18:20:40.136Z,-3.58
2023-02-12T18:23:08.449Z,-0.75
2023-02-12T18:25:40.130Z,-1.03
2023-02-12T18:28:07.061Z,-0.94
2023-02-12T18:30:34.054Z,-0.64
2023-02-12T18:33:01.328Z,-0.55
2023-02-12T18:35:28.398Z,-1.63
2023-02-12T18:37:55.530Z,-0.94
2023-02-12T18:40:22.575Z,-0.40
2023-02-12T18:42:52.825Z,-0.45
2023-02-12T18:45:19.814Z,-1.42
2023-02-12T18:47:46.772Z,-0.82
2023-02-12T18:50:15.142Z,-2.51
2023-02-12T18:52:42.036Z,-1.53
2023-02-12T18:55:08.942Z,-0.72
2023-02-12T18:57:36.126Z,-1.18
2023-02-12T19:00:06.115Z,-0.84
2023-02-12T19:02:33.482Z,-0.82
2023-02-12T19:05:00.430Z,-0.67
2023-02-12T19:07:27.426Z,-1.43
2023-02-12T19:09:54.369Z,-0.64
2023-02-12T19:12:21.283Z,-0.61
2023-02-12T19:14:48.240Z,-0.60
2023-02-12T19:17:15.584Z,-0.65
2023-02-12T19:19:42.446Z,-2.24
2023-02-12T19:22:09.738Z,-0.95
2023-02-12T19:24:46.230Z,-0.72
2023-02-12T19:27:13.768Z,-1.03
2023-02-12T19:29:40.748Z,-0.94
2023-02-12T19:32:08.215Z,-0.79
2023-02-12T19:34:35.259Z,-1.45
2023-02-12T19:37:02.080Z,-0.80
2023-02-12T19:39:29.603Z,-1.90
2023-02-12T19:41:57.895Z,-0.86
2023-02-12T19:44:25.571Z,-0.77
2023-02-12T19:46:52.841Z,-0.73
2023-02-12T19:49:22.967Z,-1.63
2023-02-12T19:51:50.782Z,-0.97
2023-02-12T19:54:19.808Z,-0.58
2023-02-12T19:56:47.362Z,-1.45
2023-02-12T19:59:17.333Z,-2.48
2023-02-12T20:01:45.988Z,-0.53
2023-02-12T20:04:15.001Z,-0.51
2023-02-12T20:06:43.523Z,-1.13
2023-02-12T20:09:11.288Z,-0.54
2023-02-12T20:11:40.758Z,-0.49
2023-02-12T20:14:10.742Z,-1.05
2023-02-12T20:16:41.555Z,-0.44
2023-02-12T20:19:12.139Z,-0.43
2023-02-12T20:21:39.601Z,-0.53
2023-02-12T20:24:06.939Z,-0.38
2023-02-12T20:26:34.599Z,-0.94
2023-02-12T20:29:04.919Z,-0.72
2023-02-12T20:31:34.503Z,-0.74
2023-02-12T20:34:03.943Z,-0.42
2023-02-12T20:36:33.867Z,-0.43
2023-02-12T20:39:01.383Z,-0.70
2023-02-12T20:41:30.853Z,-0.92
2023-02-12T20:44:00.746Z,-0.35
2023-02-12T20:46:27.965Z,-0.72
2023-02-12T20:48:55.106Z,-1.53
2023-02-12T20:51:24.750Z,-0.89
2023-02-12T20:53:52.504Z,-0.34
2023-02-12T20:56:22.130Z,-0.69
2023-02-12T20:58:49.598Z,-0.32
2023-02-12T21:01:24.018Z,-0.40
2023-02-12T21:03:53.139Z,-0.78
2023-02-12T21:06:22.138Z,-0.73
2023-02-12T21:08:51.326Z,-0.33
2023-02-12T21:11:24.427Z,-0.34
2023-02-12T21:14:12.689Z,-0.79
2023-02-12T21:16:44.553Z,-0.82
2023-02-12T21:19:14.014Z,-0.37
2023-02-12T21:21:44.468Z,-0.58
2023-02-12T21:24:16.373Z,-0.30
2023-02-12T21:26:43.392Z,-0.67
2023-02-12T21:29:11.561Z,-1.16
2023-02-12T21:31:44.149Z,-0.24
2023-02-12T21:34:22.965Z,-0.82
2023-02-12T21:36:52.791Z,-1.24
2023-02-12T21:39:27.024Z,-0.27
2023-02-12T21:42:02.992Z,-0.29
2023-02-12T21:44:31.859Z,-0.24
2023-02-12T21:46:59.376Z,-1.36
2023-02-12T21:49:27.912Z,-0.92
2023-02-12T21:51:58.125Z,-1.54
2023-02-12T21:54:25.750Z,-0.43
2023-02-12T21:56:52.612Z,-0.76
2023-02-12T21:59:19.543Z,-0.91
2023-02-12T22:01:49.571Z,-0.73
2023-02-12T22:04:17.701Z,-0.25
2023-02-12T22:06:47.011Z,-0.21
2023-02-12T22:09:16.713Z,-0.09
2023-02-12T22:11:43.649Z,-0.82
2023-02-12T22:14:13.791Z,-0.11
2023-02-12T22:16:41.010Z,-0.68
2023-02-12T22:19:08.391Z,0.02
2023-02-12T22:21:38.820Z,-0.72
2023-02-12T22:24:06.915Z,0.05
2023-02-12T22:26:34.413Z,-0.35
2023-02-12T22:29:09.844Z,0.05
2023-02-12T22:31:38.526Z,-0.44
2023-02-12T22:34:10.125Z,0.05
2023-02-12T22:36:38.168Z,-0.07
2023-02-12T22:39:05.750Z,0.10
2023-02-12T22:41:32.796Z,-0.12
2023-02-12T22:44:01.400Z,-0.74
2023-02-12T22:46:28.705Z,-0.09
2023-02-12T22:48:55.587Z,-0.10
2023-02-12T22:51:26.648Z,-1.11
2023-02-12T22:53:57.174Z,-0.39
2023-02-12T22:56:24.430Z,-0.06
2023-02-12T22:59:01.639Z,0.00
2023-02-12T23:01:29.185Z,-0.38
2023-02-12T23:03:56.553Z,-0.67
2023-02-12T23:06:26.956Z,-0.40
2023-02-12T23:08:54.861Z,0.07
2023-02-12T23:11:22.640Z,-0.09
2023-02-12T23:13:49.348Z,-0.86
2023-02-12T23:16:16.285Z,0.10
2023-02-12T23:18:43.546Z,-0.02
2023-02-12T23:21:10.559Z,-0.10
2023-02-12T23:23:37.658Z,-0.85
2023-02-12T23:26:05.238Z,0.17
2023-02-12T23:28:32.467Z,0.23
2023-02-12T23:30:59.935Z,-0.39
2023-02-12T23:33:27.314Z,0.05
2023-02-12T23:35:54.222Z,0.02
2023-02-12T23:38:21.155Z,-0.21
2023-02-12T23:40:48.656Z,-0.99
2023-02-12T23:43:16.029Z,0.04
2023-02-12T23:45:44.637Z,-0.40
2023-02-12T23:48:12.095Z,-0.26
2023-02-12T23:50:39.586Z,-0.07
2023-02-12T23:53:06.924Z,-0.10
2023-02-12T23:55:37.160Z,-1.42
2023-02-12T23:58:07.690Z,-0.04
